sensor_id;sensor_type;location;lat;lon;timestamp;temperature;humidity
9984;DHT22;16737;50.932;6.780;2023-08-07T00:02:23;16.10;99.90
9984;DHT22;16737;50.932;6.780;2023-08-07T00:04:52;16.20;99.90
9984;DHT22;16737;50.932;6.780;2023-08-07T00:07:19;16.10;99.90
9984;DHT22;16737;50.932;6.780;2023-08-07T00:09:46;16.10;99.90
9984;DHT22;16737;50.932;6.780;2023-08-07T00:12:14;16.10;99.90
9984;DHT22;16737;50.932;6.780;2023-08-07T00:14:41;16.10;99.90
9984;DHT22;16737;50.932;6.780;2023-08-07T00:17:08;16.00;99.90
9984;DHT22;16737;50.932;6.780;2023-08-07T00:19:36;16.00;99.90
9984;DHT22;16737;50.932;6.780;2023-08-07T00:22:04;16.00;99.90
9984;DHT22;16737;50.932;6.780;2023-08-07T00:24:31;16.00;99.90
9984;DHT22;16737;50.932;6.780;2023-08-07T00:26:58;15.90;99.90
9984;DHT22;16737;50.932;6.780;2023-08-07T00:29:25;15.90;99.90
9984;DHT22;16737;50.932;6.780;2023-08-07T00:31:52;15.90;99.90
9984;DHT22;16737;50.932;6.780;2023-08-07T00:34:19;15.90;99.90
9984;DHT22;16737;50.932;6.780;2023-08-07T00:36:48;15.80;99.90
9984;DHT22;16737;50.932;6.780;2023-08-07T00:39:14;15.80;99.90
9984;DHT22;16737;50.932;6.780;2023-08-07T00:41:41;15.80;99.90
9984;DHT22;16737;50.932;6.780;2023-08-07T00:44:08;15.80;99.90
9984;DHT22;16737;50.932;6.780;2023-08-07T00:46:35;15.80;99.90
9984;DHT22;16737;50.932;6.780;2023-08-07T00:49:04;15.80;99.90
9984;DHT22;16737;50.932;6.780;2023-08-07T00:51:32;15.70;99.90
9984;DHT22;16737;50.932;6.780;2023-08-07T00:54:03;15.70;99.90
9984;DHT22;16737;50.932;6.780;2023-08-07T00:56:31;15.70;99.90
9984;DHT22;16737;50.932;6.780;2023-08-07T00:59:03;15.70;99.90
9984;DHT22;16737;50.932;6.780;2023-08-07T01:01:30;15.70;99.90
9984;DHT22;16737;50.932;6.780;2023-08-07T01:03:57;15.70;99.90
9984;DHT22;16737;50.932;6.780;2023-08-07T01:06:24;15.60;99.90
9984;DHT22;16737;50.932;6.780;2023-08-07T01:08:51;15.60;99.90
9984;DHT22;16737;50.932;6.780;2023-08-07T01:11:23;15.60;99.90
9984;DHT22;16737;50.932;6.780;2023-08-07T01:14:06;15.60;99.90
9984;DHT22;16737;50.932;6.780;2023-08-07T01:16:42;15.60;99.90
9984;DHT22;16737;50.932;6.780;2023-08-07T01:19:22;15.60;99.90
9984;DHT22;16737;50.932;6.780;2023-08-07T01:22:04;15.60;99.90
9984;DHT22;16737;50.932;6.780;2023-08-07T01:24:31;15.60;99.90
9984;DHT22;16737;50.932;6.780;2023-08-07T01:27:10;15.60;99.90
9984;DHT22;16737;50.932;6.780;2023-08-07T01:29:52;15.60;99.90
9984;DHT22;16737;50.932;6.780;2023-08-07T01:32:35;15.60;99.90
9984;DHT22;16737;50.932;6.780;2023-08-07T01:35:14;15.60;99.90
9984;DHT22;16737;50.932;6.780;2023-08-07T01:37:44;15.60;99.90
9984;DHT22;16737;50.932;6.780;2023-08-07T01:40:13;15.60;99.90
9984;DHT22;16737;50.932;6.780;2023-08-07T01:42:43;15.60;99.90
9984;DHT22;16737;50.932;6.780;2023-08-07T01:45:12;15.70;99.90
9984;DHT22;16737;50.932;6.780;2023-08-07T01:47:39;15.70;99.90
9984;DHT22;16737;50.932;6.780;2023-08-07T01:50:07;15.70;99.90
9984;DHT22;16737;50.932;6.780;2023-08-07T01:52:34;15.70;99.90
9984;DHT22;16737;50.932;6.780;2023-08-07T01:55:02;15.70;99.90
9984;DHT22;16737;50.932;6.780;2023-08-07T01:57:29;15.70;99.90
9984;DHT22;16737;50.932;6.780;2023-08-07T01:59:57;15.70;99.90
9984;DHT22;16737;50.932;6.780;2023-08-07T02:02:23;15.80;99.90
9984;DHT22;16737;50.932;6.780;2023-08-07T02:04:50;15.80;99.90
9984;DHT22;16737;50.932;6.780;2023-08-07T02:07:17;15.80;99.90
9984;DHT22;16737;50.932;6.780;2023-08-07T02:09:44;15.80;99.90
9984;DHT22;16737;50.932;6.780;2023-08-07T02:12:12;15.80;99.90
9984;DHT22;16737;50.932;6.780;2023-08-07T02:14:39;15.80;99.90
9984;DHT22;16737;50.932;6.780;2023-08-07T02:17:06;15.90;99.90
9984;DHT22;16737;50.932;6.780;2023-08-07T02:19:33;15.90;99.90
9984;DHT22;16737;50.932;6.780;2023-08-07T02:22:01;15.90;99.90
9984;DHT22;16737;50.932;6.780;2023-08-07T02:24:28;15.90;99.90
9984;DHT22;16737;50.932;6.780;2023-08-07T02:26:55;15.90;99.90
9984;DHT22;16737;50.932;6.780;2023-08-07T02:29:23;15.90;99.90
9984;DHT22;16737;50.932;6.780;2023-08-07T02:31:50;15.90;99.90
9984;DHT22;16737;50.932;6.780;2023-08-07T02:34:17;15.90;99.90
9984;DHT22;16737;50.932;6.780;2023-08-07T02:36:44;15.90;99.90
9984;DHT22;16737;50.932;6.780;2023-08-07T02:39:13;16.00;99.90
9984;DHT22;16737;50.932;6.780;2023-08-07T02:41:40;16.00;99.90
9984;DHT22;16737;50.932;6.780;2023-08-07T02:44:07;16.00;99.90
9984;DHT22;16737;50.932;6.780;2023-08-07T02:46:35;15.90;99.90
9984;DHT22;16737;50.932;6.780;2023-08-07T02:49:02;15.90;99.90
9984;DHT22;16737;50.932;6.780;2023-08-07T02:51:30;16.00;99.90
9984;DHT22;16737;50.932;6.780;2023-08-07T02:53:57;16.00;99.90
9984;DHT22;16737;50.932;6.780;2023-08-07T02:56:24;16.00;99.90
9984;DHT22;16737;50.932;6.780;2023-08-07T02:58:50;16.00;99.90
9984;DHT22;16737;50.932;6.780;2023-08-07T03:01:17;16.00;99.90
9984;DHT22;16737;50.932;6.780;2023-08-07T03:03:47;16.00;99.90
9984;DHT22;16737;50.932;6.780;2023-08-07T03:06:14;16.00;99.90
9984;DHT22;16737;50.932;6.780;2023-08-07T03:08:41;16.00;99.90
9984;DHT22;16737;50.932;6.780;2023-08-07T03:11:08;16.00;99.90
9984;DHT22;16737;50.932;6.780;2023-08-07T03:13:35;15.90;99.90
9984;DHT22;16737;50.932;6.780;2023-08-07T03:16:04;16.00;99.90
9984;DHT22;16737;50.932;6.780;2023-08-07T03:18:33;16.00;99.90
9984;DHT22;16737;50.932;6.780;2023-08-07T03:21:02;16.00;99.90
9984;DHT22;16737;50.932;6.780;2023-08-07T03:23:29;16.00;99.90
9984;DHT22;16737;50.932;6.780;2023-08-07T03:26:02;15.90;99.90
9984;DHT22;16737;50.932;6.780;2023-08-07T03:28:30;15.90;99.90
9984;DHT22;16737;50.932;6.780;2023-08-07T03:30:57;15.90;99.90
9984;DHT22;16737;50.932;6.780;2023-08-07T03:33:24;15.90;99.90
9984;DHT22;16737;50.932;6.780;2023-08-07T03:35:51;15.90;99.90
9984;DHT22;16737;50.932;6.780;2023-08-07T03:38:19;15.90;99.90
9984;DHT22;16737;50.932;6.780;2023-08-07T03:40:46;15.90;99.90
9984;DHT22;16737;50.932;6.780;2023-08-07T03:43:13;15.90;99.90
9984;DHT22;16737;50.932;6.780;2023-08-07T03:45:40;15.80;99.90
9984;DHT22;16737;50.932;6.780;2023-08-07T03:48:07;15.80;99.90
9984;DHT22;16737;50.932;6.780;2023-08-07T03:50:34;15.80;99.90
9984;DHT22;16737;50.932;6.780;2023-08-07T03:53:03;15.80;99.90
9984;DHT22;16737;50.932;6.780;2023-08-07T03:55:34;15.80;99.90
9984;DHT22;16737;50.932;6.780;2023-08-07T03:58:01;15.80;99.90
9984;DHT22;16737;50.932;6.780;2023-08-07T04:00:29;15.80;99.90
9984;DHT22;16737;50.932;6.780;2023-08-07T04:02:56;15.80;99.90
9984;DHT22;16737;50.932;6.780;2023-08-07T04:05:23;15.70;99.90
9984;DHT22;16737;50.932;6.780;2023-08-07T04:07:50;15.70;99.90
9984;DHT22;16737;50.932;6.780;2023-08-07T04:10:17;15.70;99.90
9984;DHT22;16737;50.932;6.780;2023-08-07T04:12:45;15.70;99.90
9984;DHT22;16737;50.932;6.780;2023-08-07T04:15:12;15.70;99.90
9984;DHT22;16737;50.932;6.780;2023-08-07T04:17:39;15.70;99.90
9984;DHT22;16737;50.932;6.780;2023-08-07T04:20:07;15.70;99.90
9984;DHT22;16737;50.932;6.780;2023-08-07T04:22:35;15.70;99.90
9984;DHT22;16737;50.932;6.780;2023-08-07T04:25:02;15.60;99.90
9984;DHT22;16737;50.932;6.780;2023-08-07T04:27:30;15.60;99.90
9984;DHT22;16737;50.932;6.780;2023-08-07T04:29:58;15.60;99.90
9984;DHT22;16737;50.932;6.780;2023-08-07T04:32:25;15.60;99.90
9984;DHT22;16737;50.932;6.780;2023-08-07T04:34:52;15.60;99.90
9984;DHT22;16737;50.932;6.780;2023-08-07T04:37:19;15.60;99.90
9984;DHT22;16737;50.932;6.780;2023-08-07T04:39:45;15.60;99.90
9984;DHT22;16737;50.932;6.780;2023-08-07T04:42:12;15.60;99.90
9984;DHT22;16737;50.932;6.780;2023-08-07T04:44:39;15.60;99.90
9984;DHT22;16737;50.932;6.780;2023-08-07T04:47:08;15.70;99.90
9984;DHT22;16737;50.932;6.780;2023-08-07T04:49:34;15.60;99.90
9984;DHT22;16737;50.932;6.780;2023-08-07T04:52:01;15.60;99.90
9984;DHT22;16737;50.932;6.780;2023-08-07T04:54:28;15.60;99.90
9984;DHT22;16737;50.932;6.780;2023-08-07T04:56:55;15.60;99.90
9984;DHT22;16737;50.932;6.780;2023-08-07T04:59:23;15.60;99.90
9984;DHT22;16737;50.932;6.780;2023-08-07T05:01:50;15.60;99.90
9984;DHT22;16737;50.932;6.780;2023-08-07T05:04:18;15.60;99.90
9984;DHT22;16737;50.932;6.780;2023-08-07T05:06:45;15.70;99.90
9984;DHT22;16737;50.932;6.780;2023-08-07T05:09:12;15.70;99.90
9984;DHT22;16737;50.932;6.780;2023-08-07T05:11:39;15.70;99.90
9984;DHT22;16737;50.932;6.780;2023-08-07T05:14:05;15.70;99.90
9984;DHT22;16737;50.932;6.780;2023-08-07T05:16:32;15.70;99.90
9984;DHT22;16737;50.932;6.780;2023-08-07T05:18:59;15.70;99.90
9984;DHT22;16737;50.932;6.780;2023-08-07T05:21:28;15.70;99.90
9984;DHT22;16737;50.932;6.780;2023-08-07T05:23:54;15.70;99.90
9984;DHT22;16737;50.932;6.780;2023-08-07T05:26:21;15.70;99.90
9984;DHT22;16737;50.932;6.780;2023-08-07T05:28:48;15.70;99.90
9984;DHT22;16737;50.932;6.780;2023-08-07T05:31:15;15.70;99.90
9984;DHT22;16737;50.932;6.780;2023-08-07T05:33:42;15.70;99.90
9984;DHT22;16737;50.932;6.780;2023-08-07T05:36:09;15.70;99.90
9984;DHT22;16737;50.932;6.780;2023-08-07T05:38:38;15.70;99.90
9984;DHT22;16737;50.932;6.780;2023-08-07T05:41:05;15.70;99.90
9984;DHT22;16737;50.932;6.780;2023-08-07T05:43:31;15.70;99.90
9984;DHT22;16737;50.932;6.780;2023-08-07T05:45:58;15.70;99.90
9984;DHT22;16737;50.932;6.780;2023-08-07T05:48:26;15.70;99.90
9984;DHT22;16737;50.932;6.780;2023-08-07T05:50:53;15.70;99.90
9984;DHT22;16737;50.932;6.780;2023-08-07T05:53:20;15.70;99.90
9984;DHT22;16737;50.932;6.780;2023-08-07T05:55:48;15.60;99.90
9984;DHT22;16737;50.932;6.780;2023-08-07T05:58:15;15.70;99.90
9984;DHT22;16737;50.932;6.780;2023-08-07T06:00:42;15.60;99.90
9984;DHT22;16737;50.932;6.780;2023-08-07T06:03:09;15.60;99.90
9984;DHT22;16737;50.932;6.780;2023-08-07T06:05:36;15.70;99.90
9984;DHT22;16737;50.932;6.780;2023-08-07T06:08:03;15.70;99.90
9984;DHT22;16737;50.932;6.780;2023-08-07T06:10:30;15.70;99.90
9984;DHT22;16737;50.932;6.780;2023-08-07T06:12:58;15.70;99.90
9984;DHT22;16737;50.932;6.780;2023-08-07T06:15:25;15.70;99.90
9984;DHT22;16737;50.932;6.780;2023-08-07T06:17:52;15.70;99.90
9984;DHT22;16737;50.932;6.780;2023-08-07T06:20:19;15.70;99.90
9984;DHT22;16737;50.932;6.780;2023-08-07T06:22:46;15.60;99.90
9984;DHT22;16737;50.932;6.780;2023-08-07T06:25:13;15.60;99.90
9984;DHT22;16737;50.932;6.780;2023-08-07T06:27:40;15.60;99.90
9984;DHT22;16737;50.932;6.780;2023-08-07T06:30:10;15.60;99.90
9984;DHT22;16737;50.932;6.780;2023-08-07T06:32:38;15.60;99.90
9984;DHT22;16737;50.932;6.780;2023-08-07T06:35:06;15.60;99.90
9984;DHT22;16737;50.932;6.780;2023-08-07T06:37:33;15.60;99.90
9984;DHT22;16737;50.932;6.780;2023-08-07T06:40:00;15.60;99.90
9984;DHT22;16737;50.932;6.780;2023-08-07T06:42:28;15.60;99.90
9984;DHT22;16737;50.932;6.780;2023-08-07T06:44:55;15.60;99.90
9984;DHT22;16737;50.932;6.780;2023-08-07T06:47:23;15.50;99.90
9984;DHT22;16737;50.932;6.780;2023-08-07T06:49:50;15.50;99.90
9984;DHT22;16737;50.932;6.780;2023-08-07T06:52:17;15.50;99.90
9984;DHT22;16737;50.932;6.780;2023-08-07T06:54:44;15.50;99.90
9984;DHT22;16737;50.932;6.780;2023-08-07T06:57:11;15.50;99.90
9984;DHT22;16737;50.932;6.780;2023-08-07T06:59:38;15.50;99.90
9984;DHT22;16737;50.932;6.780;2023-08-07T07:02:05;15.50;99.90
9984;DHT22;16737;50.932;6.780;2023-08-07T07:04:34;15.50;99.90
9984;DHT22;16737;50.932;6.780;2023-08-07T07:07:02;15.50;99.90
9984;DHT22;16737;50.932;6.780;2023-08-07T07:09:29;15.50;99.90
9984;DHT22;16737;50.932;6.780;2023-08-07T07:11:57;15.60;99.90
9984;DHT22;16737;50.932;6.780;2023-08-07T07:14:24;15.50;99.90
9984;DHT22;16737;50.932;6.780;2023-08-07T07:16:51;15.50;99.90
9984;DHT22;16737;50.932;6.780;2023-08-07T07:19:18;15.50;99.90
9984;DHT22;16737;50.932;6.780;2023-08-07T07:21:46;15.50;99.90
9984;DHT22;16737;50.932;6.780;2023-08-07T07:24:13;15.60;99.90
9984;DHT22;16737;50.932;6.780;2023-08-07T07:26:40;15.50;99.90
9984;DHT22;16737;50.932;6.780;2023-08-07T07:29:07;15.50;99.90
9984;DHT22;16737;50.932;6.780;2023-08-07T07:31:34;15.50;99.90
9984;DHT22;16737;50.932;6.780;2023-08-07T07:34:01;15.50;99.90
9984;DHT22;16737;50.932;6.780;2023-08-07T07:36:29;15.60;99.90
9984;DHT22;16737;50.932;6.780;2023-08-07T07:38:57;15.60;99.90
9984;DHT22;16737;50.932;6.780;2023-08-07T07:41:24;15.60;99.90
9984;DHT22;16737;50.932;6.780;2023-08-07T07:43:51;15.60;99.90
9984;DHT22;16737;50.932;6.780;2023-08-07T07:46:18;15.60;99.90
9984;DHT22;16737;50.932;6.780;2023-08-07T07:48:45;15.60;99.90
9984;DHT22;16737;50.932;6.780;2023-08-07T07:51:12;15.60;99.90
9984;DHT22;16737;50.932;6.780;2023-08-07T07:53:39;15.60;99.90
9984;DHT22;16737;50.932;6.780;2023-08-07T07:56:07;15.70;99.90
9984;DHT22;16737;50.932;6.780;2023-08-07T07:58:34;15.70;99.90
9984;DHT22;16737;50.932;6.780;2023-08-07T08:01:01;15.70;99.90
9984;DHT22;16737;50.932;6.780;2023-08-07T08:03:28;15.70;99.90
9984;DHT22;16737;50.932;6.780;2023-08-07T08:05:55;15.70;99.90
9984;DHT22;16737;50.932;6.780;2023-08-07T08:08:23;15.80;99.90
9984;DHT22;16737;50.932;6.780;2023-08-07T08:10:50;15.80;99.90
9984;DHT22;16737;50.932;6.780;2023-08-07T08:13:18;15.80;99.90
9984;DHT22;16737;50.932;6.780;2023-08-07T08:15:45;15.90;99.90
9984;DHT22;16737;50.932;6.780;2023-08-07T08:18:12;15.90;99.90
9984;DHT22;16737;50.932;6.780;2023-08-07T08:20:39;16.00;99.90
9984;DHT22;16737;50.932;6.780;2023-08-07T08:23:06;16.00;99.90
9984;DHT22;16737;50.932;6.780;2023-08-07T08:25:33;16.10;99.90
9984;DHT22;16737;50.932;6.780;2023-08-07T08:28:00;16.10;99.90
9984;DHT22;16737;50.932;6.780;2023-08-07T08:30:29;16.10;99.90
9984;DHT22;16737;50.932;6.780;2023-08-07T08:32:56;16.10;99.90
9984;DHT22;16737;50.932;6.780;2023-08-07T08:35:23;16.20;99.90
9984;DHT22;16737;50.932;6.780;2023-08-07T08:37:50;16.30;99.90
9984;DHT22;16737;50.932;6.780;2023-08-07T08:40:17;16.20;99.90
9984;DHT22;16737;50.932;6.780;2023-08-07T08:42:45;16.30;99.90
9984;DHT22;16737;50.932;6.780;2023-08-07T08:45:13;16.30;99.90
9984;DHT22;16737;50.932;6.780;2023-08-07T08:47:43;16.40;99.90
9984;DHT22;16737;50.932;6.780;2023-08-07T08:50:13;16.40;99.90
9984;DHT22;16737;50.932;6.780;2023-08-07T08:52:43;16.40;99.90
9984;DHT22;16737;50.932;6.780;2023-08-07T08:55:11;16.40;99.90
9984;DHT22;16737;50.932;6.780;2023-08-07T08:57:39;16.50;99.90
9984;DHT22;16737;50.932;6.780;2023-08-07T09:00:08;16.50;99.90
9984;DHT22;16737;50.932;6.780;2023-08-07T09:02:45;16.60;99.90
9984;DHT22;16737;50.932;6.780;2023-08-07T09:05:14;16.70;99.90
9984;DHT22;16737;50.932;6.780;2023-08-07T09:07:43;16.80;99.90
9984;DHT22;16737;50.932;6.780;2023-08-07T09:10:12;16.80;99.90
9984;DHT22;16737;50.932;6.780;2023-08-07T09:12:41;16.90;99.90
9984;DHT22;16737;50.932;6.780;2023-08-07T09:15:15;17.00;99.90
9984;DHT22;16737;50.932;6.780;2023-08-07T09:17:46;17.00;99.90
9984;DHT22;16737;50.932;6.780;2023-08-07T09:20:14;17.10;99.90
9984;DHT22;16737;50.932;6.780;2023-08-07T09:22:41;17.10;99.90
9984;DHT22;16737;50.932;6.780;2023-08-07T09:25:09;17.10;99.90
9984;DHT22;16737;50.932;6.780;2023-08-07T09:27:36;17.20;99.90
9984;DHT22;16737;50.932;6.780;2023-08-07T09:30:06;17.20;99.90
9984;DHT22;16737;50.932;6.780;2023-08-07T09:32:35;17.20;99.90
9984;DHT22;16737;50.932;6.780;2023-08-07T09:35:06;17.20;99.90
9984;DHT22;16737;50.932;6.780;2023-08-07T09:37:36;17.20;99.90
9984;DHT22;16737;50.932;6.780;2023-08-07T09:40:05;17.30;99.90
9984;DHT22;16737;50.932;6.780;2023-08-07T09:42:36;17.30;99.90
9984;DHT22;16737;50.932;6.780;2023-08-07T09:45:19;17.30;99.90
9984;DHT22;16737;50.932;6.780;2023-08-07T09:47:47;17.30;99.90
9984;DHT22;16737;50.932;6.780;2023-08-07T09:50:25;17.40;99.90
9984;DHT22;16737;50.932;6.780;2023-08-07T09:52:53;17.50;99.90
9984;DHT22;16737;50.932;6.780;2023-08-07T09:55:21;17.50;99.90
9984;DHT22;16737;50.932;6.780;2023-08-07T09:57:48;17.60;99.90
9984;DHT22;16737;50.932;6.780;2023-08-07T10:00:16;17.70;99.90
9984;DHT22;16737;50.932;6.780;2023-08-07T10:02:46;17.80;99.90
9984;DHT22;16737;50.932;6.780;2023-08-07T10:05:14;17.90;99.90
9984;DHT22;16737;50.932;6.780;2023-08-07T10:07:43;18.00;99.90
9984;DHT22;16737;50.932;6.780;2023-08-07T10:10:11;18.00;99.90
9984;DHT22;16737;50.932;6.780;2023-08-07T10:12:38;18.20;99.90
9984;DHT22;16737;50.932;6.780;2023-08-07T10:15:06;18.20;99.90
9984;DHT22;16737;50.932;6.780;2023-08-07T10:17:34;18.30;99.90
9984;DHT22;16737;50.932;6.780;2023-08-07T10:20:01;18.40;99.90
9984;DHT22;16737;50.932;6.780;2023-08-07T10:22:30;18.60;99.90
9984;DHT22;16737;50.932;6.780;2023-08-07T10:25:01;18.60;99.90
9984;DHT22;16737;50.932;6.780;2023-08-07T10:27:32;18.80;99.90
9984;DHT22;16737;50.932;6.780;2023-08-07T10:30:02;18.80;99.90
9984;DHT22;16737;50.932;6.780;2023-08-07T10:32:33;19.00;99.90
9984;DHT22;16737;50.932;6.780;2023-08-07T10:35:03;19.10;99.90
9984;DHT22;16737;50.932;6.780;2023-08-07T10:37:41;19.20;99.90
9984;DHT22;16737;50.932;6.780;2023-08-07T10:40:12;19.40;99.90
9984;DHT22;16737;50.932;6.780;2023-08-07T10:42:58;19.50;99.90
9984;DHT22;16737;50.932;6.780;2023-08-07T10:45:27;19.60;99.90
9984;DHT22;16737;50.932;6.780;2023-08-07T10:48:02;19.70;99.90
9984;DHT22;16737;50.932;6.780;2023-08-07T10:50:32;19.80;99.90
9984;DHT22;16737;50.932;6.780;2023-08-07T10:53:00;19.90;99.90
9984;DHT22;16737;50.932;6.780;2023-08-07T10:55:43;20.00;99.90
9984;DHT22;16737;50.932;6.780;2023-08-07T10:58:22;20.10;99.50
9984;DHT22;16737;50.932;6.780;2023-08-07T11:00:50;20.10;99.20
9984;DHT22;16737;50.932;6.780;2023-08-07T11:03:26;20.10;99.80
9984;DHT22;16737;50.932;6.780;2023-08-07T11:05:53;20.20;99.10
9984;DHT22;16737;50.932;6.780;2023-08-07T11:08:22;20.20;99.70
9984;DHT22;16737;50.932;6.780;2023-08-07T11:10:52;20.20;99.50
9984;DHT22;16737;50.932;6.780;2023-08-07T11:13:20;20.20;99.40
9984;DHT22;16737;50.932;6.780;2023-08-07T11:15:47;20.30;99.60
9984;DHT22;16737;50.932;6.780;2023-08-07T11:18:14;20.30;99.60
9984;DHT22;16737;50.932;6.780;2023-08-07T11:20:42;20.40;99.70
9984;DHT22;16737;50.932;6.780;2023-08-07T11:23:09;20.50;99.70
9984;DHT22;16737;50.932;6.780;2023-08-07T11:25:37;20.60;99.60
9984;DHT22;16737;50.932;6.780;2023-08-07T11:28:05;20.70;99.50
9984;DHT22;16737;50.932;6.780;2023-08-07T11:30:34;20.80;99.20
9984;DHT22;16737;50.932;6.780;2023-08-07T11:33:01;20.90;99.10
9984;DHT22;16737;50.932;6.780;2023-08-07T11:35:29;21.00;99.00
9984;DHT22;16737;50.932;6.780;2023-08-07T11:37:56;21.00;98.60
9984;DHT22;16737;50.932;6.780;2023-08-07T11:40:23;21.20;98.50
9984;DHT22;16737;50.932;6.780;2023-08-07T11:42:50;21.20;97.80
9984;DHT22;16737;50.932;6.780;2023-08-07T11:45:18;21.20;97.70
9984;DHT22;16737;50.932;6.780;2023-08-07T11:47:45;21.20;97.10
9984;DHT22;16737;50.932;6.780;2023-08-07T11:50:12;21.20;97.10
9984;DHT22;16737;50.932;6.780;2023-08-07T11:52:39;21.20;96.90
9984;DHT22;16737;50.932;6.780;2023-08-07T11:55:07;21.20;96.90
9984;DHT22;16737;50.932;6.780;2023-08-07T11:57:37;21.10;97.00
9984;DHT22;16737;50.932;6.780;2023-08-07T12:00:07;21.10;97.10
9984;DHT22;16737;50.932;6.780;2023-08-07T12:02:41;21.20;97.10
9984;DHT22;16737;50.932;6.780;2023-08-07T12:05:09;21.20;96.70
9984;DHT22;16737;50.932;6.780;2023-08-07T12:07:38;21.30;96.90
9984;DHT22;16737;50.932;6.780;2023-08-07T12:10:07;21.30;96.40
9984;DHT22;16737;50.932;6.780;2023-08-07T12:12:36;21.40;96.40
9984;DHT22;16737;50.932;6.780;2023-08-07T12:15:07;21.40;96.00
9984;DHT22;16737;50.932;6.780;2023-08-07T12:17:35;21.50;95.70
9984;DHT22;16737;50.932;6.780;2023-08-07T12:20:06;21.50;95.90
9984;DHT22;16737;50.932;6.780;2023-08-07T12:22:36;21.50;95.50
9984;DHT22;16737;50.932;6.780;2023-08-07T12:25:04;21.50;95.90
9984;DHT22;16737;50.932;6.780;2023-08-07T12:27:31;21.60;95.90
9984;DHT22;16737;50.932;6.780;2023-08-07T12:29:58;21.70;95.90
9984;DHT22;16737;50.932;6.780;2023-08-07T12:32:25;21.70;95.60
9984;DHT22;16737;50.932;6.780;2023-08-07T12:34:52;21.70;95.40
9984;DHT22;16737;50.932;6.780;2023-08-07T12:37:20;21.80;95.30
9984;DHT22;16737;50.932;6.780;2023-08-07T12:39:48;21.80;95.30
9984;DHT22;16737;50.932;6.780;2023-08-07T12:42:15;21.80;95.40
9984;DHT22;16737;50.932;6.780;2023-08-07T12:44:42;21.80;95.30
9984;DHT22;16737;50.932;6.780;2023-08-07T12:47:09;21.80;95.20
9984;DHT22;16737;50.932;6.780;2023-08-07T12:49:36;21.80;95.00
9984;DHT22;16737;50.932;6.780;2023-08-07T12:52:04;21.90;95.10
9984;DHT22;16737;50.932;6.780;2023-08-07T12:54:33;21.90;94.90
9984;DHT22;16737;50.932;6.780;2023-08-07T12:57:00;22.00;94.70
9984;DHT22;16737;50.932;6.780;2023-08-07T12:59:27;22.00;94.80
9984;DHT22;16737;50.932;6.780;2023-08-07T13:01:53;22.20;94.90
9984;DHT22;16737;50.932;6.780;2023-08-07T13:04:20;22.10;94.80
9984;DHT22;16737;50.932;6.780;2023-08-07T13:06:47;22.10;94.70
9984;DHT22;16737;50.932;6.780;2023-08-07T13:09:15;22.10;94.50
9984;DHT22;16737;50.932;6.780;2023-08-07T13:11:43;22.10;94.40
9984;DHT22;16737;50.932;6.780;2023-08-07T13:14:10;22.10;94.10
9984;DHT22;16737;50.932;6.780;2023-08-07T13:16:37;22.10;94.10
9984;DHT22;16737;50.932;6.780;2023-08-07T13:19:04;22.10;94.10
9984;DHT22;16737;50.932;6.780;2023-08-07T13:21:31;22.00;94.10
9984;DHT22;16737;50.932;6.780;2023-08-07T13:23:58;22.00;94.10
9984;DHT22;16737;50.932;6.780;2023-08-07T13:26:25;22.00;94.10
9984;DHT22;16737;50.932;6.780;2023-08-07T13:28:53;21.90;94.00
9984;DHT22;16737;50.932;6.780;2023-08-07T13:31:20;21.90;93.80
9984;DHT22;16737;50.932;6.780;2023-08-07T13:33:47;21.90;94.10
9984;DHT22;16737;50.932;6.780;2023-08-07T13:36:14;21.90;94.00
9984;DHT22;16737;50.932;6.780;2023-08-07T13:38:41;21.90;94.10
9984;DHT22;16737;50.932;6.780;2023-08-07T13:41:08;22.00;94.30
9984;DHT22;16737;50.932;6.780;2023-08-07T13:43:35;22.00;94.00
9984;DHT22;16737;50.932;6.780;2023-08-07T13:46:03;22.00;94.00
9984;DHT22;16737;50.932;6.780;2023-08-07T13:48:30;22.00;93.60
9984;DHT22;16737;50.932;6.780;2023-08-07T13:50:59;22.00;93.60
9984;DHT22;16737;50.932;6.780;2023-08-07T13:53:30;22.00;93.80
9984;DHT22;16737;50.932;6.780;2023-08-07T13:55:56;21.90;93.80
9984;DHT22;16737;50.932;6.780;2023-08-07T13:58:23;21.80;94.00
9984;DHT22;16737;50.932;6.780;2023-08-07T14:00:50;21.70;94.20
9984;DHT22;16737;50.932;6.780;2023-08-07T14:03:19;21.70;94.70
9984;DHT22;16737;50.932;6.780;2023-08-07T14:05:46;21.60;95.00
9984;DHT22;16737;50.932;6.780;2023-08-07T14:08:16;21.60;94.90
9984;DHT22;16737;50.932;6.780;2023-08-07T14:10:44;21.70;94.90
9984;DHT22;16737;50.932;6.780;2023-08-07T14:13:11;21.70;95.00
9984;DHT22;16737;50.932;6.780;2023-08-07T14:15:38;21.70;95.00
9984;DHT22;16737;50.932;6.780;2023-08-07T14:18:05;21.80;94.90
9984;DHT22;16737;50.932;6.780;2023-08-07T14:20:34;21.80;94.40
9984;DHT22;16737;50.932;6.780;2023-08-07T14:23:01;21.90;94.10
9984;DHT22;16737;50.932;6.780;2023-08-07T14:25:28;21.90;94.00
9984;DHT22;16737;50.932;6.780;2023-08-07T14:27:55;21.90;93.80
9984;DHT22;16737;50.932;6.780;2023-08-07T14:30:22;21.80;93.80
9984;DHT22;16737;50.932;6.780;2023-08-07T14:32:49;21.80;93.80
9984;DHT22;16737;50.932;6.780;2023-08-07T14:35:16;21.80;93.80
9984;DHT22;16737;50.932;6.780;2023-08-07T14:37:44;21.80;93.80
9984;DHT22;16737;50.932;6.780;2023-08-07T14:40:13;21.70;94.00
9984;DHT22;16737;50.932;6.780;2023-08-07T14:42:40;21.70;93.70
9984;DHT22;16737;50.932;6.780;2023-08-07T14:45:08;21.70;93.70
9984;DHT22;16737;50.932;6.780;2023-08-07T14:47:35;21.60;93.70
9984;DHT22;16737;50.932;6.780;2023-08-07T14:50:02;21.60;93.90
9984;DHT22;16737;50.932;6.780;2023-08-07T14:52:30;21.60;93.90
9984;DHT22;16737;50.932;6.780;2023-08-07T14:54:58;21.60;93.90
9984;DHT22;16737;50.932;6.780;2023-08-07T14:57:25;21.70;94.10
9984;DHT22;16737;50.932;6.780;2023-08-07T14:59:52;21.70;94.20
9984;DHT22;16737;50.932;6.780;2023-08-07T15:02:19;21.80;94.30
9984;DHT22;16737;50.932;6.780;2023-08-07T15:04:46;21.90;94.10
9984;DHT22;16737;50.932;6.780;2023-08-07T15:07:13;21.90;94.00
9984;DHT22;16737;50.932;6.780;2023-08-07T15:09:39;22.00;94.00
9984;DHT22;16737;50.932;6.780;2023-08-07T15:12:09;22.10;93.80
9984;DHT22;16737;50.932;6.780;2023-08-07T15:14:36;22.20;93.40
9984;DHT22;16737;50.932;6.780;2023-08-07T15:17:04;22.30;93.60
9984;DHT22;16737;50.932;6.780;2023-08-07T15:19:31;22.40;93.30
9984;DHT22;16737;50.932;6.780;2023-08-07T15:21:58;22.50;93.20
9984;DHT22;16737;50.932;6.780;2023-08-07T15:24:25;22.50;92.90
9984;DHT22;16737;50.932;6.780;2023-08-07T15:26:52;22.60;92.70
9984;DHT22;16737;50.932;6.780;2023-08-07T15:29:20;22.60;92.40
9984;DHT22;16737;50.932;6.780;2023-08-07T15:31:47;22.60;92.10
9984;DHT22;16737;50.932;6.780;2023-08-07T15:34:14;22.60;92.20
9984;DHT22;16737;50.932;6.780;2023-08-07T15:36:41;22.60;92.10
9984;DHT22;16737;50.932;6.780;2023-08-07T15:39:08;22.60;92.10
9984;DHT22;16737;50.932;6.780;2023-08-07T15:41:35;22.70;91.90
9984;DHT22;16737;50.932;6.780;2023-08-07T15:44:02;22.70;91.90
9984;DHT22;16737;50.932;6.780;2023-08-07T15:46:30;22.70;91.90
9984;DHT22;16737;50.932;6.780;2023-08-07T15:48:57;22.80;91.90
9984;DHT22;16737;50.932;6.780;2023-08-07T15:51:24;22.80;92.20